地図

経路データ

SID SEASON NUMBER BASIN SUBBASIN NAME ISO_TIME NATURE LAT LON WMO_WIND WMO_PRES WMO_AGENCY TRACK_TYPE DIST2LAND LANDFALL IFLAG USA_AGENCY USA_ATCF_ID USA_LAT USA_LON USA_RECORD USA_STATUS USA_WIND USA_PRES USA_SSHS USA_R34_NE USA_R34_SE USA_R34_SW USA_R34_NW USA_R50_NE USA_R50_SE USA_R50_SW USA_R50_NW USA_R64_NE USA_R64_SE USA_R64_SW USA_R64_NW USA_POCI USA_ROCI USA_RMW USA_EYE TOKYO_LAT TOKYO_LON TOKYO_GRADE TOKYO_WIND TOKYO_PRES TOKYO_R50_DIR TOKYO_R50_LONG TOKYO_R50_SHORT TOKYO_R30_DIR TOKYO_R30_LONG TOKYO_R30_SHORT TOKYO_LAND CMA_LAT CMA_LON CMA_CAT CMA_WIND CMA_PRES HKO_LAT HKO_LON HKO_CAT HKO_WIND HKO_PRES NEWDELHI_LAT NEWDELHI_LON NEWDELHI_GRADE NEWDELHI_WIND NEWDELHI_PRES NEWDELHI_CI NEWDELHI_DP NEWDELHI_POCI REUNION_LAT REUNION_LON REUNION_TYPE REUNION_WIND REUNION_PRES REUNION_TNUM REUNION_CI REUNION_RMW REUNION_R34_NE REUNION_R34_SE REUNION_R34_SW REUNION_R34_NW REUNION_R50_NE REUNION_R50_SE REUNION_R50_SW REUNION_R50_NW REUNION_R64_NE REUNION_R64_SE REUNION_R64_SW REUNION_R64_NW BOM_LAT BOM_LON BOM_TYPE BOM_WIND BOM_PRES BOM_TNUM BOM_CI BOM_RMW BOM_R34_NE BOM_R34_SE BOM_R34_SW BOM_R34_NW BOM_R50_NE BOM_R50_SE BOM_R50_SW BOM_R50_NW BOM_R64_NE BOM_R64_SE BOM_R64_SW BOM_R64_NW BOM_ROCI BOM_POCI BOM_EYE BOM_POS_METHOD BOM_PRES_METHOD NADI_LAT NADI_LON NADI_CAT NADI_WIND NADI_PRES WELLINGTON_LAT WELLINGTON_LON WELLINGTON_WIND WELLINGTON_PRES DS824_LAT DS824_LON DS824_STAGE DS824_WIND DS824_PRES TD9636_LAT TD9636_LON TD9636_STAGE TD9636_WIND TD9636_PRES TD9635_LAT TD9635_LON TD9635_WIND TD9635_PRES TD9635_ROCI NEUMANN_LAT NEUMANN_LON NEUMANN_CLASS NEUMANN_WIND NEUMANN_PRES MLC_LAT MLC_LON MLC_CLASS MLC_WIND MLC_PRES USA_GUST BOM_GUST BOM_GUST_PER REUNION_GUST REUNION_GUST_PER USA_SEAHGT USA_SEARAD_NE USA_SEARAD_SE USA_SEARAD_SW USA_SEARAD_NW STORM_SPEED STORM_DIR
2016240N31295 2016 56 NA NA NOT_NAMED 2016-08-27 00:00:00 DS 30.7000 -65.0000 20 1012 hurdat_atl main 1127 1103 O_____________ hurdat_atl AL082016 30.7000 -65.0000 LO 20 1012 -3 1016 120 90 5 281
2016240N31295 2016 56 NA NA NOT_NAMED 2016-08-27 03:00:00 DS 30.7502 -65.3024 main 1097 1073 P_____________ AL082016 30.7502 -65.3024 LO 22 1011 -3 1015 110 85 5 281
2016240N31295 2016 56 NA NA NOT_NAMED 2016-08-27 06:00:00 DS 30.8000 -65.6000 25 1011 hurdat_atl main 1073 1049 O_____________ hurdat_atl AL082016 30.8000 -65.6000 LO 25 1011 -3 1014 100 80 5 281
2016240N31295 2016 56 NA NA NOT_NAMED 2016-08-27 09:00:00 DS 30.8499 -65.8925 main 1049 1019 P_____________ AL082016 30.8499 -65.8925 LO 25 1011 -3 1014 110 70 5 281
2016240N31295 2016 56 NA NA NOT_NAMED 2016-08-27 12:00:00 DS 30.9000 -66.2000 25 1011 hurdat_atl main 1019 996 O_____________ hurdat_atl AL082016 30.9000 -66.2000 LO 25 1011 -3 1015 120 60 6 280
2016240N31295 2016 56 NA NA NOT_NAMED 2016-08-27 15:00:00 DS 30.9498 -66.5275 main 996 959 P_____________ AL082016 30.9498 -66.5275 LO 25 1011 -3 1015 120 60 6 279
2016240N31295 2016 56 NA NA NOT_NAMED 2016-08-27 18:00:00 DS 31.0000 -66.9000 25 1011 hurdat_atl main 959 928 O_____________ hurdat_atl AL082016 31.0000 -66.9000 LO 25 1011 -3 1015 120 60 7 278
2016240N31295 2016 56 NA NA NOT_NAMED 2016-08-27 21:00:00 DS 31.0425 -67.3351 main 928 884 P_____________ AL082016 31.0425 -67.3351 LO 25 1011 -3 1015 120 60 8 277
2016240N31295 2016 56 NA NA NOT_NAMED 2016-08-28 00:00:00 DS 31.1000 -67.8000 25 1011 hurdat_atl main 884 847 O_____________ hurdat_atl AL082016 31.1000 -67.8000 LO 25 1011 -3 1015 120 60 8 281
2016240N31295 2016 56 NA NA NOT_NAMED 2016-08-28 03:00:00 DS 31.1923 -68.2500 main 847 804 P_____________ AL082016 31.1923 -68.2500 LO 25 1011 -3 1015 120 60 8 285
2016240N31295 2016 56 NA NA NOT_NAMED 2016-08-28 06:00:00 DS 31.3000 -68.7000 25 1011 hurdat_atl main 804 768 O_____________ hurdat_atl AL082016 31.3000 -68.7000 LO 25 1011 -3 1015 120 60 8 285
2016240N31295 2016 56 NA NA NOT_NAMED 2016-08-28 09:00:00 DS 31.3998 -69.1426 main 768 725 P_____________ AL082016 31.3998 -69.1426 LO 27 1010 -3 1014 120 60 8 285
2016240N31295 2016 56 NA NA NOT_NAMED 2016-08-28 12:00:00 TS 31.5000 -69.6000 30 1010 hurdat_atl main 725 682 O_____________ hurdat_atl AL082016 31.5000 -69.6000 TD 30 1010 -1 1014 120 60 40 8 283
2016240N31295 2016 56 NA NA NOT_NAMED 2016-08-28 15:00:00 TS 31.5923 -70.0852 main 682 637 P_____________ AL082016 31.5923 -70.0852 TD 30 1010 -1 1014 120 55 9 283
2016240N31295 2016 56 NA NA NOT_NAMED 2016-08-28 18:00:00 TS 31.7000 -70.6000 30 1010 hurdat_atl main 637 593 O_____________ hurdat_atl AL082016 31.7000 -70.6000 TD 30 1010 -1 1014 120 50 40 9 285
2016240N31295 2016 56 NA NA NOT_NAMED 2016-08-28 21:00:00 TS 31.8350 -71.1576 main 585 534 P_____________ AL082016 31.8350 -71.1576 TD 30 1010 -1 1014 120 50 10 288
2016240N31295 2016 56 NA NA NOT_NAMED 2016-08-29 00:00:00 TS 32.0000 -71.7000 30 1010 hurdat_atl main 534 484 O_____________ hurdat_atl AL082016 32.0000 -71.7000 TD 30 1010 -1 1014 120 50 40 9 292
2016240N31295 2016 56 NA NA NOT_NAMED 2016-08-29 03:00:00 TS 32.1849 -72.1876 main 484 440 P_____________ AL082016 32.1849 -72.1876 TD 30 1010 -1 1014 120 50 9 298
2016240N31295 2016 56 NA NA NOT_NAMED 2016-08-29 06:00:00 TS 32.4000 -72.6000 30 1010 hurdat_atl main 440 405 O_____________ hurdat_atl AL082016 32.4000 -72.6000 TD 30 1010 -1 1014 120 50 40 8 306
2016240N31295 2016 56 NA NA NOT_NAMED 2016-08-29 09:00:00 TS 32.6422 -72.9227 main 405 362 P_____________ AL082016 32.6422 -72.9227 TD 30 1010 -1 1014 115 55 7 315
2016240N31295 2016 56 NA NA NOT_NAMED 2016-08-29 12:00:00 TS 32.9000 -73.2000 30 1011 hurdat_atl main 362 319 O_____________ hurdat_atl AL082016 32.9000 -73.2000 TD 30 1011 -1 1015 110 60 40 7 318
2016240N31295 2016 56 NA NA NOT_NAMED 2016-08-29 15:00:00 TS 33.1649 -73.4926 main 319 284 P_____________ AL082016 33.1649 -73.4926 TD 30 1011 -1 1015 110 60 7 315
2016240N31295 2016 56 NA NA NOT_NAMED 2016-08-29 18:00:00 TS 33.4000 -73.8000 30 1012 hurdat_atl main 284 248 O_____________ hurdat_atl AL082016 33.4000 -73.8000 TD 30 1012 -1 1016 110 60 40 7 306
2016240N31295 2016 56 NA NA NOT_NAMED 2016-08-29 21:00:00 TS 33.5726 -74.1576 main 241 212 P_____________ AL082016 33.5726 -74.1576 TD 30 1012 -1 1016 110 60 7 297
2016240N31295 2016 56 NA NA NOT_NAMED 2016-08-30 00:00:00 TS 33.7000 -74.5000 30 1012 hurdat_atl main 212 184 O_____________ hurdat_atl AL082016 33.7000 -74.5000 TD 30 1012 -1 1016 110 60 40 6 293
2016240N31295 2016 56 NA NA NOT_NAMED 2016-08-30 03:00:00 TS 33.8000 -74.8026 main 184 163 P_____________ AL082016 33.8000 -74.8026 TD 30 1011 -1 1016 110 67 5 296
2016240N31295 2016 56 NA NA NOT_NAMED 2016-08-30 06:00:00 TS 33.9000 -75.0000 30 1011 hurdat_atl main 163 155 O_____________ hurdat_atl AL082016 33.9000 -75.0000 TD 30 1011 -1 1016 110 75 40 3 321
2016240N31295 2016 56 NA NA NOT_NAMED 2016-08-30 09:00:00 TS 34.0499 -75.0451 main 155 142 P_____________ AL082016 34.0499 -75.0451 TD 30 1011 -1 1016 105 62 3 0
2016240N31295 2016 56 NA NA NOT_NAMED 2016-08-30 12:00:00 TS 34.2000 -75.0000 30 1011 hurdat_atl main 142 136 O_____________ hurdat_atl AL082016 34.2000 -75.0000 TD 30 1011 -1 1016 100 50 40 3 14
2016240N31295 2016 56 NA NA NOT_NAMED 2016-08-30 15:00:00 TS 34.3075 -74.9650 main 136 136 P_____________ AL082016 34.3075 -74.9650 TD 30 1011 -1 1016 100 50 2 23
2016240N31295 2016 56 NA NA NOT_NAMED 2016-08-30 18:00:00 TS 34.4000 -74.9000 30 1011 hurdat_atl main 139 135 O_____________ hurdat_atl AL082016 34.4000 -74.9000 TD 30 1011 -1 1016 100 50 40 2 35
2016240N31295 2016 56 NA NA NOT_NAMED 2016-08-30 21:00:00 TS 34.5000 -74.8075 main 143 138 P_____________ AL082016 34.5000 -74.8075 TD 30 1011 -1 1015 95 50 3 40
2016240N31295 2016 56 NA NA NOT_NAMED 2016-08-31 00:00:00 TS 34.6000 -74.7000 30 1011 hurdat_atl main 143 135 O_____________ hurdat_atl AL082016 34.6000 -74.7000 TD 30 1011 -1 1014 90 50 40 2 38
2016240N31295 2016 56 NA NA NOT_NAMED 2016-08-31 03:00:00 TS 34.6848 -74.6372 main 141 133 P_____________ AL082016 34.6848 -74.6372 TD 30 1011 -1 1014 90 50 3 40
2016240N31295 2016 56 NA NA NOT_NAMED 2016-08-31 06:00:00 TS 34.8000 -74.5000 30 1011 hurdat_atl main 140 140 O_____________ hurdat_atl AL082016 34.8000 -74.5000 TD 30 1011 -1 1014 90 50 40 4 51
2016240N31295 2016 56 NA NA NOT_NAMED 2016-08-31 09:00:00 TS 34.9623 -74.2170 main 147 147 P_____________ AL082016 34.9623 -74.2170 TD 30 1010 -1 1014 90 50 7 55
2016240N31295 2016 56 NA NA NOT_NAMED 2016-08-31 12:00:00 TS 35.2000 -73.8000 30 1010 hurdat_atl main 167 167 O_____________ hurdat_atl AL082016 35.2000 -73.8000 TD 30 1010 -1 1014 90 50 40 9 53
2016240N31295 2016 56 NA NA NOT_NAMED 2016-08-31 15:00:00 TS 35.5122 -73.3094 main 201 201 P_____________ AL082016 35.5122 -73.3094 TD 30 1010 -1 1013 90 65 11 52
2016240N31295 2016 56 NA NA NOT_NAMED 2016-08-31 18:00:00 TS 35.9000 -72.7000 30 1010 hurdat_atl main 252 252 O_____________ hurdat_atl AL082016 35.9000 -72.7000 TD 30 1010 -1 1013 90 80 35 14 52
2016240N31295 2016 56 NA NA NOT_NAMED 2016-08-31 21:00:00 TS 36.3387 -71.9821 main 318 318 P_____________ AL082016 36.3387 -71.9821 TD 30 1010 -1 1013 95 80 15 53
2016240N31295 2016 56 NA NA NOT_NAMED 2016-09-01 00:00:00 TS 36.8000 -71.2000 30 1010 hurdat_atl main 381 O_____________ hurdat_atl AL082016 36.8000 -71.2000 TD 30 1010 -1 1013 100 80 35 16 54

IBTrACS Databaseについて

本データベースは、米国NOAAが公開する1842年以降の世界の熱帯低気圧のベストトラックデータアーカイブInternational Best Track Archive for Climate Stewardship (IBTrACS)を、ウェブで閲覧しやすい形式に変換したものです。

最終更新日:2021-12-06